sensor_id;sensor_type;location;lat;lon;timestamp;temperature;humidity
44435;DHT22;30138;20.964;105.830;2023-04-24T00:02:57;29.60;99.90
44435;DHT22;30138;20.964;105.830;2023-04-24T00:08:05;29.60;99.90
44435;DHT22;30138;20.964;105.830;2023-04-24T00:13:13;29.60;99.90
44435;DHT22;30138;20.964;105.830;2023-04-24T00:18:21;29.70;99.90
44435;DHT22;30138;20.964;105.830;2023-04-24T00:23:28;29.60;99.90
44435;DHT22;30138;20.964;105.830;2023-04-24T00:28:38;29.60;99.90
44435;DHT22;30138;20.964;105.830;2023-04-24T00:33:45;29.70;99.90
44435;DHT22;30138;20.964;105.830;2023-04-24T00:38:52;29.70;99.90
44435;DHT22;30138;20.964;105.830;2023-04-24T00:44:02;29.70;99.90
44435;DHT22;30138;20.964;105.830;2023-04-24T00:49:09;29.70;99.90
44435;DHT22;30138;20.964;105.830;2023-04-24T00:54:16;29.70;99.90
44435;DHT22;30138;20.964;105.830;2023-04-24T00:59:25;29.70;99.90
44435;DHT22;30138;20.964;105.830;2023-04-24T01:04:33;29.70;99.90
44435;DHT22;30138;20.964;105.830;2023-04-24T01:09:41;29.70;99.90
44435;DHT22;30138;20.964;105.830;2023-04-24T01:14:52;29.70;99.90
44435;DHT22;30138;20.964;105.830;2023-04-24T01:20:00;29.70;99.90
44435;DHT22;30138;20.964;105.830;2023-04-24T01:25:10;29.70;99.90
44435;DHT22;30138;20.964;105.830;2023-04-24T01:30:17;29.70;99.90
44435;DHT22;30138;20.964;105.830;2023-04-24T01:35:24;29.70;99.90
44435;DHT22;30138;20.964;105.830;2023-04-24T01:40:33;29.70;99.90
44435;DHT22;30138;20.964;105.830;2023-04-24T01:45:40;29.70;99.90
44435;DHT22;30138;20.964;105.830;2023-04-24T01:50:47;29.70;99.90
44435;DHT22;30138;20.964;105.830;2023-04-24T01:55:57;29.70;99.90
44435;DHT22;30138;20.964;105.830;2023-04-24T02:01:07;29.80;99.90
44435;DHT22;30138;20.964;105.830;2023-04-24T02:06:14;29.80;99.90
44435;DHT22;30138;20.964;105.830;2023-04-24T02:11:23;29.80;99.90
44435;DHT22;30138;20.964;105.830;2023-04-24T02:16:29;29.90;99.90
44435;DHT22;30138;20.964;105.830;2023-04-24T02:21:38;29.90;99.90
44435;DHT22;30138;20.964;105.830;2023-04-24T02:26:47;30.00;99.90
44435;DHT22;30138;20.964;105.830;2023-04-24T02:31:54;30.00;99.90
44435;DHT22;30138;20.964;105.830;2023-04-24T02:37:01;30.00;99.90
44435;DHT22;30138;20.964;105.830;2023-04-24T02:42:10;30.00;99.90
44435;DHT22;30138;20.964;105.830;2023-04-24T02:47:18;30.00;99.90
44435;DHT22;30138;20.964;105.830;2023-04-24T02:52:25;30.00;99.90
44435;DHT22;30138;20.964;105.830;2023-04-24T02:57:35;30.00;99.90
44435;DHT22;30138;20.964;105.830;2023-04-24T03:02:43;30.10;99.90
44435;DHT22;30138;20.964;105.830;2023-04-24T03:07:50;30.10;99.90
44435;DHT22;30138;20.964;105.830;2023-04-24T03:13:00;30.10;99.90
44435;DHT22;30138;20.964;105.830;2023-04-24T03:18:07;30.10;99.90
44435;DHT22;30138;20.964;105.830;2023-04-24T03:23:14;30.10;99.90
44435;DHT22;30138;20.964;105.830;2023-04-24T03:28:23;30.10;99.90
44435;DHT22;30138;20.964;105.830;2023-04-24T03:33:40;30.10;99.90
44435;DHT22;30138;20.964;105.830;2023-04-24T03:38:48;30.10;99.90
44435;DHT22;30138;20.964;105.830;2023-04-24T03:44:03;30.10;99.90
44435;DHT22;30138;20.964;105.830;2023-04-24T03:49:12;30.20;99.90
44435;DHT22;30138;20.964;105.830;2023-04-24T03:54:21;30.20;99.90
44435;DHT22;30138;20.964;105.830;2023-04-24T03:59:32;30.20;99.90
44435;DHT22;30138;20.964;105.830;2023-04-24T04:04:50;30.30;99.90
44435;DHT22;30138;20.964;105.830;2023-04-24T04:09:58;30.30;99.90
44435;DHT22;30138;20.964;105.830;2023-04-24T04:15:07;30.30;99.90
44435;DHT22;30138;20.964;105.830;2023-04-24T04:20:15;30.40;99.90
44435;DHT22;30138;20.964;105.830;2023-04-24T04:25:22;30.40;99.90
44435;DHT22;30138;20.964;105.830;2023-04-24T04:30:31;30.40;99.90
44435;DHT22;30138;20.964;105.830;2023-04-24T04:35:41;30.40;99.90
44435;DHT22;30138;20.964;105.830;2023-04-24T04:40:51;30.40;99.90
44435;DHT22;30138;20.964;105.830;2023-04-24T04:46:04;30.40;99.90
44435;DHT22;30138;20.964;105.830;2023-04-24T04:51:23;30.40;99.90
44435;DHT22;30138;20.964;105.830;2023-04-24T04:56:30;30.40;99.90
44435;DHT22;30138;20.964;105.830;2023-04-24T05:01:41;30.40;99.90
44435;DHT22;30138;20.964;105.830;2023-04-24T05:06:50;30.40;99.90
44435;DHT22;30138;20.964;105.830;2023-04-24T05:12:06;30.40;99.90
44435;DHT22;30138;20.964;105.830;2023-04-24T05:17:24;30.40;99.90
44435;DHT22;30138;20.964;105.830;2023-04-24T05:22:33;30.40;99.90
44435;DHT22;30138;20.964;105.830;2023-04-24T05:27:41;30.50;99.90
44435;DHT22;30138;20.964;105.830;2023-04-24T05:32:54;30.50;99.90
44435;DHT22;30138;20.964;105.830;2023-04-24T05:38:00;30.50;99.90
44435;DHT22;30138;20.964;105.830;2023-04-24T05:43:08;30.60;99.90
44435;DHT22;30138;20.964;105.830;2023-04-24T05:48:16;30.60;99.90
44435;DHT22;30138;20.964;105.830;2023-04-24T05:53:28;30.60;99.90
44435;DHT22;30138;20.964;105.830;2023-04-24T05:58:36;30.70;99.90
44435;DHT22;30138;20.964;105.830;2023-04-24T06:03:45;30.70;99.90
44435;DHT22;30138;20.964;105.830;2023-04-24T06:08:52;30.70;99.90
44435;DHT22;30138;20.964;105.830;2023-04-24T06:14:02;30.70;99.90
44435;DHT22;30138;20.964;105.830;2023-04-24T06:19:17;30.70;99.90
44435;DHT22;30138;20.964;105.830;2023-04-24T06:24:28;30.70;99.90
44435;DHT22;30138;20.964;105.830;2023-04-24T06:29:35;30.70;99.90
44435;DHT22;30138;20.964;105.830;2023-04-24T06:34:44;30.70;99.90
44435;DHT22;30138;20.964;105.830;2023-04-24T06:39:52;30.70;99.90
44435;DHT22;30138;20.964;105.830;2023-04-24T06:44:59;30.70;99.90
44435;DHT22;30138;20.964;105.830;2023-04-24T06:50:09;30.80;99.90
44435;DHT22;30138;20.964;105.830;2023-04-24T06:55:16;30.80;99.90
44435;DHT22;30138;20.964;105.830;2023-04-24T07:00:23;30.80;99.90
44435;DHT22;30138;20.964;105.830;2023-04-24T07:05:33;30.80;99.90
44435;DHT22;30138;20.964;105.830;2023-04-24T07:10:41;30.80;99.90
44435;DHT22;30138;20.964;105.830;2023-04-24T07:15:48;30.80;99.90
44435;DHT22;30138;20.964;105.830;2023-04-24T07:20:59;30.80;99.90
44435;DHT22;30138;20.964;105.830;2023-04-24T07:26:06;30.90;99.90
44435;DHT22;30138;20.964;105.830;2023-04-24T07:31:14;30.80;99.90
44435;DHT22;30138;20.964;105.830;2023-04-24T07:36:22;30.90;99.90
44435;DHT22;30138;20.964;105.830;2023-04-24T07:41:29;30.90;99.90
44435;DHT22;30138;20.964;105.830;2023-04-24T07:46:37;30.90;99.90
44435;DHT22;30138;20.964;105.830;2023-04-24T07:51:46;30.90;99.90
44435;DHT22;30138;20.964;105.830;2023-04-24T07:56:52;30.90;99.90
44435;DHT22;30138;20.964;105.830;2023-04-24T08:02:00;30.90;99.90
44435;DHT22;30138;20.964;105.830;2023-04-24T08:07:10;30.90;99.90
44435;DHT22;30138;20.964;105.830;2023-04-24T08:12:17;30.90;99.90
44435;DHT22;30138;20.964;105.830;2023-04-24T08:17:24;30.90;99.90
44435;DHT22;30138;20.964;105.830;2023-04-24T08:22:33;30.90;99.90
44435;DHT22;30138;20.964;105.830;2023-04-24T08:27:40;31.00;99.90
44435;DHT22;30138;20.964;105.830;2023-04-24T08:32:47;31.00;99.90
44435;DHT22;30138;20.964;105.830;2023-04-24T08:37:56;30.90;99.90
44435;DHT22;30138;20.964;105.830;2023-04-24T08:43:04;31.00;99.90
44435;DHT22;30138;20.964;105.830;2023-04-24T08:48:11;31.00;99.90
44435;DHT22;30138;20.964;105.830;2023-04-24T08:53:20;31.00;99.90
44435;DHT22;30138;20.964;105.830;2023-04-24T08:58:28;31.00;99.90
44435;DHT22;30138;20.964;105.830;2023-04-24T09:03:35;31.00;99.90
44435;DHT22;30138;20.964;105.830;2023-04-24T09:08:45;30.90;99.90
44435;DHT22;30138;20.964;105.830;2023-04-24T09:13:52;31.00;99.90
44435;DHT22;30138;20.964;105.830;2023-04-24T09:19:03;31.00;99.90
44435;DHT22;30138;20.964;105.830;2023-04-24T09:24:16;31.00;99.90
44435;DHT22;30138;20.964;105.830;2023-04-24T09:29:26;31.00;99.90
44435;DHT22;30138;20.964;105.830;2023-04-24T09:34:34;31.00;99.90
44435;DHT22;30138;20.964;105.830;2023-04-24T09:39:44;31.00;99.90
44435;DHT22;30138;20.964;105.830;2023-04-24T09:44:52;31.00;99.90
44435;DHT22;30138;20.964;105.830;2023-04-24T09:49:59;31.00;99.90
44435;DHT22;30138;20.964;105.830;2023-04-24T09:55:18;31.00;99.90
44435;DHT22;30138;20.964;105.830;2023-04-24T10:00:26;31.00;99.90
44435;DHT22;30138;20.964;105.830;2023-04-24T10:05:34;31.00;99.90
44435;DHT22;30138;20.964;105.830;2023-04-24T10:10:44;31.00;99.90
44435;DHT22;30138;20.964;105.830;2023-04-24T10:15:52;31.00;99.90
44435;DHT22;30138;20.964;105.830;2023-04-24T10:21:01;30.90;99.90
44435;DHT22;30138;20.964;105.830;2023-04-24T10:26:09;30.90;99.90
44435;DHT22;30138;20.964;105.830;2023-04-24T10:31:21;30.90;99.90
44435;DHT22;30138;20.964;105.830;2023-04-24T10:36:28;30.90;99.90
44435;DHT22;30138;20.964;105.830;2023-04-24T10:41:38;30.90;99.90
44435;DHT22;30138;20.964;105.830;2023-04-24T10:46:46;30.90;99.90
44435;DHT22;30138;20.964;105.830;2023-04-24T10:51:53;30.90;99.90
44435;DHT22;30138;20.964;105.830;2023-04-24T10:57:29;30.90;99.90
44435;DHT22;30138;20.964;105.830;2023-04-24T11:02:38;30.90;99.90
44435;DHT22;30138;20.964;105.830;2023-04-24T11:08:12;30.90;99.90
44435;DHT22;30138;20.964;105.830;2023-04-24T11:13:22;30.90;99.90
44435;DHT22;30138;20.964;105.830;2023-04-24T11:18:37;30.90;99.90
44435;DHT22;30138;20.964;105.830;2023-04-24T11:23:48;30.90;99.90
44435;DHT22;30138;20.964;105.830;2023-04-24T11:29:07;30.90;99.90
44435;DHT22;30138;20.964;105.830;2023-04-24T11:34:14;30.80;99.90
44435;DHT22;30138;20.964;105.830;2023-04-24T11:39:24;30.80;99.90
44435;DHT22;30138;20.964;105.830;2023-04-24T11:44:34;30.80;99.90
44435;DHT22;30138;20.964;105.830;2023-04-24T11:49:42;30.80;99.90
44435;DHT22;30138;20.964;105.830;2023-04-24T11:54:50;30.80;99.90
44435;DHT22;30138;20.964;105.830;2023-04-24T11:59:58;30.80;99.90
44435;DHT22;30138;20.964;105.830;2023-04-24T12:05:20;30.80;99.90
44435;DHT22;30138;20.964;105.830;2023-04-24T12:10:30;30.80;99.90
44435;DHT22;30138;20.964;105.830;2023-04-24T12:15:40;30.80;99.90
44435;DHT22;30138;20.964;105.830;2023-04-24T12:20:47;30.80;99.90
44435;DHT22;30138;20.964;105.830;2023-04-24T12:26:03;30.80;99.90
44435;DHT22;30138;20.964;105.830;2023-04-24T12:31:14;30.80;99.90
44435;DHT22;30138;20.964;105.830;2023-04-24T12:36:22;30.80;99.90
44435;DHT22;30138;20.964;105.830;2023-04-24T12:41:31;30.80;99.90
44435;DHT22;30138;20.964;105.830;2023-04-24T12:46:45;30.80;99.90
44435;DHT22;30138;20.964;105.830;2023-04-24T12:52:00;30.80;99.90
44435;DHT22;30138;20.964;105.830;2023-04-24T12:57:13;30.80;99.90
44435;DHT22;30138;20.964;105.830;2023-04-24T13:02:31;30.80;99.90
44435;DHT22;30138;20.964;105.830;2023-04-24T13:07:41;30.80;99.90
44435;DHT22;30138;20.964;105.830;2023-04-24T13:12:48;30.70;99.90
44435;DHT22;30138;20.964;105.830;2023-04-24T13:17:57;30.70;99.90
44435;DHT22;30138;20.964;105.830;2023-04-24T13:23:08;30.70;99.90
44435;DHT22;30138;20.964;105.830;2023-04-24T13:28:16;30.70;99.90
44435;DHT22;30138;20.964;105.830;2023-04-24T13:33:25;30.70;99.90
44435;DHT22;30138;20.964;105.830;2023-04-24T13:38:32;30.70;99.90
44435;DHT22;30138;20.964;105.830;2023-04-24T13:43:39;30.70;99.90
44435;DHT22;30138;20.964;105.830;2023-04-24T13:48:48;30.70;99.90
44435;DHT22;30138;20.964;105.830;2023-04-24T13:53:57;30.70;99.90
44435;DHT22;30138;20.964;105.830;2023-04-24T13:59:05;30.70;99.90
44435;DHT22;30138;20.964;105.830;2023-04-24T14:04:15;30.70;99.90
44435;DHT22;30138;20.964;105.830;2023-04-24T14:09:22;30.70;99.90
44435;DHT22;30138;20.964;105.830;2023-04-24T14:14:30;30.70;99.90
44435;DHT22;30138;20.964;105.830;2023-04-24T14:19:40;30.70;99.90
44435;DHT22;30138;20.964;105.830;2023-04-24T14:24:48;30.60;99.90
44435;DHT22;30138;20.964;105.830;2023-04-24T14:29:55;30.60;99.90
44435;DHT22;30138;20.964;105.830;2023-04-24T14:35:06;30.70;99.90
44435;DHT22;30138;20.964;105.830;2023-04-24T14:40:13;30.60;99.90
44435;DHT22;30138;20.964;105.830;2023-04-24T14:45:21;30.60;99.90
44435;DHT22;30138;20.964;105.830;2023-04-24T14:50:30;30.60;99.90
44435;DHT22;30138;20.964;105.830;2023-04-24T14:55:38;30.60;99.90
44435;DHT22;30138;20.964;105.830;2023-04-24T15:00:45;30.60;99.90
44435;DHT22;30138;20.964;105.830;2023-04-24T15:05:54;30.60;99.90
44435;DHT22;30138;20.964;105.830;2023-04-24T15:11:03;30.60;99.90
44435;DHT22;30138;20.964;105.830;2023-04-24T15:16:10;30.60;99.90
44435;DHT22;30138;20.964;105.830;2023-04-24T15:21:19;30.50;99.90
44435;DHT22;30138;20.964;105.830;2023-04-24T15:26:28;30.50;99.90
44435;DHT22;30138;20.964;105.830;2023-04-24T15:31:36;30.50;99.90
44435;DHT22;30138;20.964;105.830;2023-04-24T15:36:45;30.50;99.90
44435;DHT22;30138;20.964;105.830;2023-04-24T15:41:52;30.50;99.90
44435;DHT22;30138;20.964;105.830;2023-04-24T15:47:01;30.50;99.90
44435;DHT22;30138;20.964;105.830;2023-04-24T15:52:10;30.50;99.90
44435;DHT22;30138;20.964;105.830;2023-04-24T15:57:18;30.50;99.90
44435;DHT22;30138;20.964;105.830;2023-04-24T16:02:26;30.50;99.90
44435;DHT22;30138;20.964;105.830;2023-04-24T16:07:36;30.50;99.90
44435;DHT22;30138;20.964;105.830;2023-04-24T16:12:43;30.50;99.90
44435;DHT22;30138;20.964;105.830;2023-04-24T16:17:50;30.50;99.90
44435;DHT22;30138;20.964;105.830;2023-04-24T16:22:59;30.50;99.90
44435;DHT22;30138;20.964;105.830;2023-04-24T16:28:06;30.50;99.90
44435;DHT22;30138;20.964;105.830;2023-04-24T16:33:14;30.50;99.90
44435;DHT22;30138;20.964;105.830;2023-04-24T16:38:23;30.50;99.90
44435;DHT22;30138;20.964;105.830;2023-04-24T16:43:31;30.50;99.90
44435;DHT22;30138;20.964;105.830;2023-04-24T16:48:38;30.50;99.90
44435;DHT22;30138;20.964;105.830;2023-04-24T16:53:49;30.50;99.90
44435;DHT22;30138;20.964;105.830;2023-04-24T16:58:58;30.50;99.90
44435;DHT22;30138;20.964;105.830;2023-04-24T17:04:14;30.40;99.90
44435;DHT22;30138;20.964;105.830;2023-04-24T17:09:24;30.50;99.90
44435;DHT22;30138;20.964;105.830;2023-04-24T17:14:31;30.40;99.90
44435;DHT22;30138;20.964;105.830;2023-04-24T17:19:38;30.40;99.90
44435;DHT22;30138;20.964;105.830;2023-04-24T17:24:47;30.40;99.90
44435;DHT22;30138;20.964;105.830;2023-04-24T17:29:54;30.40;99.90
44435;DHT22;30138;20.964;105.830;2023-04-24T17:35:01;30.40;99.90
44435;DHT22;30138;20.964;105.830;2023-04-24T17:40:12;30.40;99.90
44435;DHT22;30138;20.964;105.830;2023-04-24T17:45:19;30.40;99.90
44435;DHT22;30138;20.964;105.830;2023-04-24T17:50:26;30.30;99.90
44435;DHT22;30138;20.964;105.830;2023-04-24T17:55:35;30.40;99.90
44435;DHT22;30138;20.964;105.830;2023-04-24T18:00:42;30.30;99.90
44435;DHT22;30138;20.964;105.830;2023-04-24T18:05:52;30.30;99.90
44435;DHT22;30138;20.964;105.830;2023-04-24T18:11:04;30.30;99.90
44435;DHT22;30138;20.964;105.830;2023-04-24T18:16:12;30.30;99.90
44435;DHT22;30138;20.964;105.830;2023-04-24T18:21:19;30.30;99.90
44435;DHT22;30138;20.964;105.830;2023-04-24T18:26:28;30.30;99.90
44435;DHT22;30138;20.964;105.830;2023-04-24T18:31:35;30.30;99.90
44435;DHT22;30138;20.964;105.830;2023-04-24T18:36:43;30.30;99.90
44435;DHT22;30138;20.964;105.830;2023-04-24T18:41:51;30.20;99.90
44435;DHT22;30138;20.964;105.830;2023-04-24T18:46:59;30.30;99.90
44435;DHT22;30138;20.964;105.830;2023-04-24T18:52:06;30.20;99.90
44435;DHT22;30138;20.964;105.830;2023-04-24T18:57:15;30.20;99.90
44435;DHT22;30138;20.964;105.830;2023-04-24T19:02:23;30.20;99.90
44435;DHT22;30138;20.964;105.830;2023-04-24T19:07:30;30.20;99.90
44435;DHT22;30138;20.964;105.830;2023-04-24T19:12:40;30.20;99.90
44435;DHT22;30138;20.964;105.830;2023-04-24T19:17:47;30.20;99.90
44435;DHT22;30138;20.964;105.830;2023-04-24T19:22:55;30.20;99.90
44435;DHT22;30138;20.964;105.830;2023-04-24T19:28:04;30.20;99.90
44435;DHT22;30138;20.964;105.830;2023-04-24T19:33:11;30.20;99.90
44435;DHT22;30138;20.964;105.830;2023-04-24T19:38:19;30.20;99.90
44435;DHT22;30138;20.964;105.830;2023-04-24T19:43:28;30.10;99.90
44435;DHT22;30138;20.964;105.830;2023-04-24T19:48:37;30.20;99.90
44435;DHT22;30138;20.964;105.830;2023-04-24T19:53:44;30.10;99.90
44435;DHT22;30138;20.964;105.830;2023-04-24T19:58:55;30.10;99.90
44435;DHT22;30138;20.964;105.830;2023-04-24T20:04:03;30.10;99.90
44435;DHT22;30138;20.964;105.830;2023-04-24T20:09:11;30.10;99.90
44435;DHT22;30138;20.964;105.830;2023-04-24T20:14:21;30.10;99.90
44435;DHT22;30138;20.964;105.830;2023-04-24T20:19:28;30.10;99.90
44435;DHT22;30138;20.964;105.830;2023-04-24T20:24:34;30.00;99.90
44435;DHT22;30138;20.964;105.830;2023-04-24T20:29:43;30.00;99.90
44435;DHT22;30138;20.964;105.830;2023-04-24T20:34:50;30.00;99.90
44435;DHT22;30138;20.964;105.830;2023-04-24T20:39:58;30.00;99.90
44435;DHT22;30138;20.964;105.830;2023-04-24T20:45:10;30.00;99.90
44435;DHT22;30138;20.964;105.830;2023-04-24T20:50:17;30.00;99.90
44435;DHT22;30138;20.964;105.830;2023-04-24T20:55:24;30.00;99.90
44435;DHT22;30138;20.964;105.830;2023-04-24T21:00:33;30.00;99.90
44435;DHT22;30138;20.964;105.830;2023-04-24T21:05:40;30.00;99.90
44435;DHT22;30138;20.964;105.830;2023-04-24T21:10:47;30.00;99.90
44435;DHT22;30138;20.964;105.830;2023-04-24T21:15:57;30.00;99.90
44435;DHT22;30138;20.964;105.830;2023-04-24T21:21:04;30.00;99.90
44435;DHT22;30138;20.964;105.830;2023-04-24T21:26:11;30.00;99.90
44435;DHT22;30138;20.964;105.830;2023-04-24T21:31:20;30.00;99.90
44435;DHT22;30138;20.964;105.830;2023-04-24T21:36:28;29.90;99.90
44435;DHT22;30138;20.964;105.830;2023-04-24T21:41:34;29.90;99.90
44435;DHT22;30138;20.964;105.830;2023-04-24T21:46:44;29.90;99.90
44435;DHT22;30138;20.964;105.830;2023-04-24T21:51:51;29.90;99.90
44435;DHT22;30138;20.964;105.830;2023-04-24T21:56:58;29.90;99.90
44435;DHT22;30138;20.964;105.830;2023-04-24T22:02:09;29.90;99.90
44435;DHT22;30138;20.964;105.830;2023-04-24T22:07:16;29.90;99.90
44435;DHT22;30138;20.964;105.830;2023-04-24T22:12:23;29.90;99.90
44435;DHT22;30138;20.964;105.830;2023-04-24T22:17:33;29.90;99.90
44435;DHT22;30138;20.964;105.830;2023-04-24T22:22:41;29.90;99.90
44435;DHT22;30138;20.964;105.830;2023-04-24T22:27:54;29.90;99.90
44435;DHT22;30138;20.964;105.830;2023-04-24T22:33:04;29.90;99.90
44435;DHT22;30138;20.964;105.830;2023-04-24T22:38:11;29.80;99.90
44435;DHT22;30138;20.964;105.830;2023-04-24T22:43:18;29.90;99.90
44435;DHT22;30138;20.964;105.830;2023-04-24T22:48:26;29.80;99.90
44435;DHT22;30138;20.964;105.830;2023-04-24T22:53:35;29.90;99.90
44435;DHT22;30138;20.964;105.830;2023-04-24T22:58:42;29.80;99.90
44435;DHT22;30138;20.964;105.830;2023-04-24T23:03:52;29.80;99.90
44435;DHT22;30138;20.964;105.830;2023-04-24T23:08:59;29.80;99.90
44435;DHT22;30138;20.964;105.830;2023-04-24T23:14:06;29.80;99.90
44435;DHT22;30138;20.964;105.830;2023-04-24T23:19:14;29.80;99.90
44435;DHT22;30138;20.964;105.830;2023-04-24T23:24:23;29.80;99.90
44435;DHT22;30138;20.964;105.830;2023-04-24T23:29:29;29.80;99.90
44435;DHT22;30138;20.964;105.830;2023-04-24T23:34:38;29.80;99.90
44435;DHT22;30138;20.964;105.830;2023-04-24T23:39:47;29.80;99.90
44435;DHT22;30138;20.964;105.830;2023-04-24T23:44:55;29.80;99.90
44435;DHT22;30138;20.964;105.830;2023-04-24T23:50:05;29.80;99.90
44435;DHT22;30138;20.964;105.830;2023-04-24T23:55:12;29.80;99.90
